Terminal Aerodrome Forecast
Issued by NWS Portland, ME

Home | Current Version | Previous Version | Text Only | Print | Product List | Glossary On
Versions: 1 2 3 4 5 6 7 8 9 10 11 12 13 14 15 16 17 18 19 20
000
FTUS41 KGYX 242320
TAFCON
TAF
KCON 242320Z 2500/2524 26012G18KT P6SM SCT100 BKN250
     FM250100 23003KT P6SM SCT100 BKN250
     FM251200 25006KT P6SM SCT060 BKN100
     FM251600 VRB04KT P6SM BKN050 OVC080=

USA.gov is the U.S. government's official web portal to all federal, state and local government web resources and services.